• Join FlightAware (Why Join?)
  • Login
  • US Flag 
Rudolph Flight #1: Arrived! 
09:46AM EST


 

Airport Tracker/Info


-or-


 

Live Flight TrackerFlight Track Log ✈ THY2572 ✈ 03-Jul-2013 ✈ LTBA / IST - LTBS / DLM

Flight Track Log - Related Links

Times and Time Zones

All times are in EDT time to prevent confusion due to time zone crossing. See the THY2572 flight status page for this flight to view local times or setup timezone preferences in your user account.

Time Position Orientation Groundspeed Altitude Reporting Facility
EDT Latitude Longitude Course Direction KTS MPH feet Rate Location/Type
05:16PM 40.2509 28.8160 180° South  Level Estimated
05:17PM 40.1602 28.8154 180° South  Level Estimated
05:18PM 40.0695 28.8147 180° South  Level Estimated
05:19PM 39.9787 28.8141 180° South  Level Estimated
05:20PM 39.8880 28.8135 180° South  Level Estimated
05:21PM 39.7972 28.8128 180° South  Level Estimated
05:22PM 39.7065 28.8122 180° South  Level Estimated
05:23PM 39.6158 28.8116 180° South  Level Estimated
05:24PM 39.5250 28.8110 180° South  Level Estimated
05:25PM 39.4343 28.8104 180° South  Level Estimated
05:26PM 39.3435 28.8097 180° South  Level Estimated
05:27PM 39.2528 28.8091 180° South  Level Estimated
05:28PM 39.1621 28.8085 180° South  Level Estimated
05:29PM 39.0713 28.8079 180° South  Level Estimated
05:30PM 38.9806 28.8073 180° South  Level Estimated
05:31PM 38.8898 28.8067 180° South  Level Estimated
05:32PM 38.7991 28.8061 180° South  Level Estimated
05:33PM 38.7084 28.8055 180° South  Level Estimated
05:34PM 38.6176 28.8049 180° South  Level Estimated
05:35PM 38.5269 28.8043 180° South  Level Estimated
05:36PM 38.4361 28.8037 180° South  Level Estimated
05:37PM 38.3454 28.8031 180° South  Level Estimated
05:38PM 38.2547 28.8025 180° South  Level Estimated
05:39PM 38.1639 28.8019 180° South  Level Estimated
05:40PM 38.0732 28.8013 180° South  Level Estimated
05:41PM 37.9824 28.8007 180° South  Level Estimated
05:42PM 37.8917 28.8001 180° South  Level Estimated
05:43PM 37.8010 28.7995 180° South  Level Estimated
05:44PM 37.7102 28.7989 180° South  Level Estimated
05:45PM 37.6195 28.7983 180° South  Level Estimated
05:46PM 37.5287 28.7977 180° South  Level Estimated
05:47PM 37.4380 28.7971 180° South  Level Estimated
05:48PM 37.3473 28.7966 180° South  Level Estimated
05:49PM 37.2565 28.7960 180° South  Level Estimated
05:50PM 37.1658 28.7954 180° South  Level Estimated
05:51PM 37.0750 28.7948 180° South  Level Estimated
05:52PM 36.9843 28.7942 180° South  Level Estimated
05:53PM 36.8936 28.7936 180° South  Level Estimated
05:54PM 36.8028 28.7931 180° South  Level Estimated
05:55PM 36.7131 28.7925 180° South  Level Estimated
05:56PM 36.7131 28.7925 180° South  Level Estimated
05:57PM 36.7131 28.7925 180° South  Level Estimated
05:58PM 36.7131 28.7925 180° South  Level Estimated
05:59PM 36.7131 28.7925 180° South  Level Estimated
06:00PM 36.7131 28.7925 180° South  Level Estimated
06:01PM 36.7131 28.7925 180° South  Level Estimated
06:02PM 36.7131 28.7925 180° South  Level Estimated
06:03PM 36.7131 28.7925 180° South  Level Estimated
06:04PM 36.7131 28.7925 180° South  Level Estimated
06:05PM 36.7131 28.7925 180° South  Level Estimated
06:06PM 36.7131 28.7925 180° South  Level Estimated
06:07PM 36.7131 28.7925 180° South  Level Estimated
06:08PM 36.7131 28.7925 180° South  Level Estimated
06:09PM 36.7131 28.7925 180° South  Level Estimated
06:10PM 36.7131 28.7925 180° South  Level Estimated
06:11PM 36.7131 28.7925 180° South  Level Estimated